Rostov, Russia
Current Conditions -  °F | °C
As of 7:00 PM on Sunday 25 Jan 2015 (Local Time) from UUDL Reporting Station
Clear Clear  
Wind Chill:   Ceiling: Unl
Heat Index: 19°   Visibility: 6mi
Dew Point: 10°   Wind: 9mph
Humidity: 68%   Direction: 170°S
Pressure: 30.45"   Gusts: NA
Location:  57.19°N, 39.4°E
Report Text: UUDL 251600Z 17004MPS CAVOK M07/M12 Q1031 NOSIG RMK QFE76523490337
Loading
Personal Weather Stations






























Interactive Weather Map New forecast layout! Learn more

10-Day Weather Forecast

Advertisements
Track Severe Weather on mobile